sensor_id;sensor_type;location;lat;lon;timestamp;P1;durP1;ratioP1;P2;durP2;ratioP2
42760;SDS011;31672;47.638;19.026;2022-09-16T00:02:29;1.67;;;0.90;;
42760;SDS011;31672;47.638;19.026;2022-09-16T00:07:38;2.03;;;1.13;;
42760;SDS011;31672;47.638;19.026;2022-09-16T00:12:41;1.63;;;1.13;;
42760;SDS011;31672;47.638;19.026;2022-09-16T00:17:44;1.30;;;1.10;;
42760;SDS011;31672;47.638;19.026;2022-09-16T00:22:47;1.60;;;1.02;;
42760;SDS011;31672;47.638;19.026;2022-09-16T00:27:50;1.08;;;0.85;;
42760;SDS011;31672;47.638;19.026;2022-09-16T00:32:53;1.00;;;0.68;;
42760;SDS011;31672;47.638;19.026;2022-09-16T00:37:56;1.00;;;0.70;;
42760;SDS011;31672;47.638;19.026;2022-09-16T00:42:58;1.75;;;0.70;;
42760;SDS011;31672;47.638;19.026;2022-09-16T00:48:03;0.70;;;0.60;;
42760;SDS011;31672;47.638;19.026;2022-09-16T00:53:15;0.77;;;0.68;;
42760;SDS011;31672;47.638;19.026;2022-09-16T01:03:41;1.38;;;0.80;;
42760;SDS011;31672;47.638;19.026;2022-09-16T01:08:50;1.50;;;0.90;;
42760;SDS011;31672;47.638;19.026;2022-09-16T01:13:53;1.55;;;1.05;;
42760;SDS011;31672;47.638;19.026;2022-09-16T01:30:46;1.02;;;0.73;;
42760;SDS011;31672;47.638;19.026;2022-09-16T02:03:33;2.05;;;1.38;;
42760;SDS011;31672;47.638;19.026;2022-09-16T02:09:12;1.70;;;1.17;;
42760;SDS011;31672;47.638;19.026;2022-09-16T02:14:23;1.08;;;0.95;;
42760;SDS011;31672;47.638;19.026;2022-09-16T02:19:36;2.15;;;1.45;;
42760;SDS011;31672;47.638;19.026;2022-09-16T02:30:10;2.33;;;1.80;;
42760;SDS011;31672;47.638;19.026;2022-09-16T02:35:19;2.78;;;1.80;;
42760;SDS011;31672;47.638;19.026;2022-09-16T02:40:24;3.53;;;2.47;;
42760;SDS011;31672;47.638;19.026;2022-09-16T02:46:38;4.15;;;2.47;;
42760;SDS011;31672;47.638;19.026;2022-09-16T02:56:59;3.80;;;2.70;;
42760;SDS011;31672;47.638;19.026;2022-09-16T03:02:02;3.28;;;2.53;;
42760;SDS011;31672;47.638;19.026;2022-09-16T03:07:07;4.28;;;2.35;;
42760;SDS011;31672;47.638;19.026;2022-09-16T03:12:18;3.92;;;2.47;;
42760;SDS011;31672;47.638;19.026;2022-09-16T03:23:17;3.97;;;2.53;;
42760;SDS011;31672;47.638;19.026;2022-09-16T03:34:29;3.97;;;2.58;;
42760;SDS011;31672;47.638;19.026;2022-09-16T03:39:51;3.30;;;2.40;;
42760;SDS011;31672;47.638;19.026;2022-09-16T03:44:58;4.32;;;2.75;;
42760;SDS011;31672;47.638;19.026;2022-09-16T03:50:01;4.10;;;2.83;;
42760;SDS011;31672;47.638;19.026;2022-09-16T03:55:05;5.10;;;2.83;;
42760;SDS011;31672;47.638;19.026;2022-09-16T04:00:09;4.32;;;2.88;;
42760;SDS011;31672;47.638;19.026;2022-09-16T04:05:13;3.67;;;2.65;;
42760;SDS011;31672;47.638;19.026;2022-09-16T04:10:16;5.10;;;3.53;;
42760;SDS011;31672;47.638;19.026;2022-09-16T04:15:20;4.35;;;3.13;;
42760;SDS011;31672;47.638;19.026;2022-09-16T04:20:23;4.38;;;3.33;;
42760;SDS011;31672;47.638;19.026;2022-09-16T04:25:26;4.25;;;2.70;;
42760;SDS011;31672;47.638;19.026;2022-09-16T04:30:29;6.28;;;3.72;;
42760;SDS011;31672;47.638;19.026;2022-09-16T04:35:32;5.97;;;3.97;;
42760;SDS011;31672;47.638;19.026;2022-09-16T04:40:34;5.20;;;4.15;;
42760;SDS011;31672;47.638;19.026;2022-09-16T04:45:40;5.18;;;3.42;;
42760;SDS011;31672;47.638;19.026;2022-09-16T04:50:43;4.30;;;3.10;;
42760;SDS011;31672;47.638;19.026;2022-09-16T04:55:46;5.82;;;3.60;;
42760;SDS011;31672;47.638;19.026;2022-09-16T05:00:49;4.68;;;3.25;;
42760;SDS011;31672;47.638;19.026;2022-09-16T05:05:52;5.13;;;3.05;;
42760;SDS011;31672;47.638;19.026;2022-09-16T05:11:00;3.95;;;2.83;;
42760;SDS011;31672;47.638;19.026;2022-09-16T05:16:07;6.30;;;3.80;;
42760;SDS011;31672;47.638;19.026;2022-09-16T05:21:14;3.95;;;2.75;;
42760;SDS011;31672;47.638;19.026;2022-09-16T05:26:21;4.72;;;3.03;;
42760;SDS011;31672;47.638;19.026;2022-09-16T05:31:28;5.40;;;3.20;;
42760;SDS011;31672;47.638;19.026;2022-09-16T05:36:33;6.05;;;3.53;;
42760;SDS011;31672;47.638;19.026;2022-09-16T05:41:40;3.17;;;2.30;;
42760;SDS011;31672;47.638;19.026;2022-09-16T05:46:42;3.97;;;3.13;;
42760;SDS011;31672;47.638;19.026;2022-09-16T05:51:46;5.05;;;2.97;;
42760;SDS011;31672;47.638;19.026;2022-09-16T05:56:50;4.15;;;2.88;;
42760;SDS011;31672;47.638;19.026;2022-09-16T06:01:53;4.82;;;2.95;;
42760;SDS011;31672;47.638;19.026;2022-09-16T06:06:56;5.00;;;2.67;;
42760;SDS011;31672;47.638;19.026;2022-09-16T06:11:59;5.30;;;2.42;;
42760;SDS011;31672;47.638;19.026;2022-09-16T06:17:03;5.88;;;2.53;;
42760;SDS011;31672;47.638;19.026;2022-09-16T06:22:06;3.03;;;2.10;;
42760;SDS011;31672;47.638;19.026;2022-09-16T06:27:09;3.63;;;2.30;;
42760;SDS011;31672;47.638;19.026;2022-09-16T06:32:11;4.38;;;2.90;;
42760;SDS011;31672;47.638;19.026;2022-09-16T06:37:14;4.65;;;2.90;;
42760;SDS011;31672;47.638;19.026;2022-09-16T06:42:17;4.72;;;2.60;;
42760;SDS011;31672;47.638;19.026;2022-09-16T06:47:20;3.08;;;2.20;;
42760;SDS011;31672;47.638;19.026;2022-09-16T06:52:23;4.90;;;3.13;;
42760;SDS011;31672;47.638;19.026;2022-09-16T06:57:26;5.05;;;3.05;;
42760;SDS011;31672;47.638;19.026;2022-09-16T07:02:29;4.65;;;3.08;;
42760;SDS011;31672;47.638;19.026;2022-09-16T07:07:32;3.95;;;2.45;;
42760;SDS011;31672;47.638;19.026;2022-09-16T07:12:38;4.35;;;2.45;;
42760;SDS011;31672;47.638;19.026;2022-09-16T07:17:40;4.05;;;2.95;;
42760;SDS011;31672;47.638;19.026;2022-09-16T07:22:43;2.72;;;2.10;;
42760;SDS011;31672;47.638;19.026;2022-09-16T07:27:46;4.88;;;2.53;;
42760;SDS011;31672;47.638;19.026;2022-09-16T07:32:49;4.30;;;3.13;;
42760;SDS011;31672;47.638;19.026;2022-09-16T07:37:52;3.65;;;2.72;;
42760;SDS011;31672;47.638;19.026;2022-09-16T07:42:54;3.92;;;2.78;;
42760;SDS011;31672;47.638;19.026;2022-09-16T07:47:58;4.45;;;2.97;;
42760;SDS011;31672;47.638;19.026;2022-09-16T07:53:01;3.65;;;2.45;;
42760;SDS011;31672;47.638;19.026;2022-09-16T07:58:06;3.00;;;1.92;;
42760;SDS011;31672;47.638;19.026;2022-09-16T08:03:09;2.40;;;1.95;;
42760;SDS011;31672;47.638;19.026;2022-09-16T08:08:12;2.67;;;1.90;;
42760;SDS011;31672;47.638;19.026;2022-09-16T08:13:15;3.20;;;1.60;;
42760;SDS011;31672;47.638;19.026;2022-09-16T08:18:18;2.85;;;1.60;;
42760;SDS011;31672;47.638;19.026;2022-09-16T08:23:21;3.95;;;1.67;;
42760;SDS011;31672;47.638;19.026;2022-09-16T08:28:24;2.22;;;1.48;;
42760;SDS011;31672;47.638;19.026;2022-09-16T08:33:49;2.78;;;1.52;;
42760;SDS011;31672;47.638;19.026;2022-09-16T08:38:55;2.78;;;1.55;;
42760;SDS011;31672;47.638;19.026;2022-09-16T08:49:39;2.95;;;1.60;;
42760;SDS011;31672;47.638;19.026;2022-09-16T08:54:51;3.95;;;1.20;;
42760;SDS011;31672;47.638;19.026;2022-09-16T09:00:05;3.47;;;1.42;;
42760;SDS011;31672;47.638;19.026;2022-09-16T09:05:17;1.80;;;1.13;;
42760;SDS011;31672;47.638;19.026;2022-09-16T09:10:46;2.80;;;1.50;;
42760;SDS011;31672;47.638;19.026;2022-09-16T09:49:50;1.85;;;1.20;;
42760;SDS011;31672;47.638;19.026;2022-09-16T09:55:00;1.85;;;1.40;;
42760;SDS011;31672;47.638;19.026;2022-09-16T10:00:26;2.83;;;1.60;;
42760;SDS011;31672;47.638;19.026;2022-09-16T10:05:29;1.83;;;1.13;;
42760;SDS011;31672;47.638;19.026;2022-09-16T10:10:33;2.30;;;1.30;;
42760;SDS011;31672;47.638;19.026;2022-09-16T10:15:42;2.25;;;1.00;;
42760;SDS011;31672;47.638;19.026;2022-09-16T10:20:47;1.58;;;1.20;;
42760;SDS011;31672;47.638;19.026;2022-09-16T10:26:06;1.45;;;0.75;;
42760;SDS011;31672;47.638;19.026;2022-09-16T10:31:09;1.70;;;1.20;;
42760;SDS011;31672;47.638;19.026;2022-09-16T10:36:20;9.68;;;1.52;;
42760;SDS011;31672;47.638;19.026;2022-09-16T10:41:39;2.92;;;1.50;;
42760;SDS011;31672;47.638;19.026;2022-09-16T10:52:22;1.48;;;1.15;;
42760;SDS011;31672;47.638;19.026;2022-09-16T10:57:31;3.88;;;1.23;;
42760;SDS011;31672;47.638;19.026;2022-09-16T11:02:45;2.38;;;1.27;;
42760;SDS011;31672;47.638;19.026;2022-09-16T11:08:25;3.08;;;1.60;;
42760;SDS011;31672;47.638;19.026;2022-09-16T11:30:38;3.50;;;0.90;;
42760;SDS011;31672;47.638;19.026;2022-09-16T11:47:18;1.58;;;1.10;;
42760;SDS011;31672;47.638;19.026;2022-09-16T11:58:50;1.20;;;0.80;;
42760;SDS011;31672;47.638;19.026;2022-09-16T12:04:01;1.17;;;0.80;;
42760;SDS011;31672;47.638;19.026;2022-09-16T12:09:20;1.50;;;0.85;;
42760;SDS011;31672;47.638;19.026;2022-09-16T12:14:36;0.93;;;0.63;;
42760;SDS011;31672;47.638;19.026;2022-09-16T12:19:58;2.17;;;0.82;;
42760;SDS011;31672;47.638;19.026;2022-09-16T12:25:51;0.80;;;0.70;;
42760;SDS011;31672;47.638;19.026;2022-09-16T12:31:12;2.28;;;0.60;;
42760;SDS011;31672;47.638;19.026;2022-09-16T12:36:29;0.80;;;0.50;;
42760;SDS011;31672;47.638;19.026;2022-09-16T13:04:40;0.60;;;0.43;;
42760;SDS011;31672;47.638;19.026;2022-09-16T13:16:02;1.17;;;0.52;;
42760;SDS011;31672;47.638;19.026;2022-09-16T13:26:39;1.33;;;0.50;;
42760;SDS011;31672;47.638;19.026;2022-09-16T13:31:46;0.50;;;0.30;;
42760;SDS011;31672;47.638;19.026;2022-09-16T13:36:50;0.60;;;0.30;;
42760;SDS011;31672;47.638;19.026;2022-09-16T13:41:53;2.65;;;0.60;;
42760;SDS011;31672;47.638;19.026;2022-09-16T13:52:12;0.82;;;0.30;;
42760;SDS011;31672;47.638;19.026;2022-09-16T14:08:42;1.33;;;0.40;;
42760;SDS011;31672;47.638;19.026;2022-09-16T14:14:08;0.40;;;0.30;;
42760;SDS011;31672;47.638;19.026;2022-09-16T14:19:37;1.23;;;0.40;;
42760;SDS011;31672;47.638;19.026;2022-09-16T14:24:44;1.05;;;0.40;;
42760;SDS011;31672;47.638;19.026;2022-09-16T14:30:02;0.70;;;0.40;;
42760;SDS011;31672;47.638;19.026;2022-09-16T14:35:18;0.85;;;0.50;;
42760;SDS011;31672;47.638;19.026;2022-09-16T14:40:25;0.70;;;0.45;;
42760;SDS011;31672;47.638;19.026;2022-09-16T14:45:30;0.57;;;0.40;;
42760;SDS011;31672;47.638;19.026;2022-09-16T14:50:39;1.40;;;0.30;;
42760;SDS011;31672;47.638;19.026;2022-09-16T14:55:47;0.80;;;0.38;;
42760;SDS011;31672;47.638;19.026;2022-09-16T15:00:51;0.65;;;0.50;;
42760;SDS011;31672;47.638;19.026;2022-09-16T15:06:08;0.90;;;0.50;;
42760;SDS011;31672;47.638;19.026;2022-09-16T15:11:18;0.95;;;0.50;;
42760;SDS011;31672;47.638;19.026;2022-09-16T15:16:48;0.52;;;0.30;;
42760;SDS011;31672;47.638;19.026;2022-09-16T15:21:55;1.25;;;0.60;;
42760;SDS011;31672;47.638;19.026;2022-09-16T15:26:59;0.55;;;0.45;;
42760;SDS011;31672;47.638;19.026;2022-09-16T15:32:19;0.93;;;0.57;;
42760;SDS011;31672;47.638;19.026;2022-09-16T15:37:28;0.98;;;0.52;;
42760;SDS011;31672;47.638;19.026;2022-09-16T15:42:36;1.48;;;0.70;;
42760;SDS011;31672;47.638;19.026;2022-09-16T15:53:03;0.63;;;0.50;;
42760;SDS011;31672;47.638;19.026;2022-09-16T16:08:47;1.90;;;0.80;;
42760;SDS011;31672;47.638;19.026;2022-09-16T16:13:52;1.90;;;1.10;;
42760;SDS011;31672;47.638;19.026;2022-09-16T16:19:00;1.50;;;1.00;;
42760;SDS011;31672;47.638;19.026;2022-09-16T16:24:04;0.93;;;0.75;;
42760;SDS011;31672;47.638;19.026;2022-09-16T16:29:07;0.68;;;0.57;;
42760;SDS011;31672;47.638;19.026;2022-09-16T16:34:10;2.33;;;0.77;;
42760;SDS011;31672;47.638;19.026;2022-09-16T16:39:13;1.77;;;0.80;;
42760;SDS011;31672;47.638;19.026;2022-09-16T16:44:16;1.20;;;0.75;;
42760;SDS011;31672;47.638;19.026;2022-09-16T16:49:20;1.70;;;0.90;;
42760;SDS011;31672;47.638;19.026;2022-09-16T16:54:24;0.90;;;0.70;;
42760;SDS011;31672;47.638;19.026;2022-09-16T16:59:28;1.80;;;0.80;;
42760;SDS011;31672;47.638;19.026;2022-09-16T17:04:32;1.90;;;0.90;;
42760;SDS011;31672;47.638;19.026;2022-09-16T17:09:35;2.25;;;0.93;;
42760;SDS011;31672;47.638;19.026;2022-09-16T17:14:39;2.20;;;0.95;;
42760;SDS011;31672;47.638;19.026;2022-09-16T17:19:43;1.50;;;0.98;;
42760;SDS011;31672;47.638;19.026;2022-09-16T17:24:46;2.15;;;1.17;;
42760;SDS011;31672;47.638;19.026;2022-09-16T17:29:49;2.03;;;1.20;;
42760;SDS011;31672;47.638;19.026;2022-09-16T17:34:52;1.17;;;0.75;;
42760;SDS011;31672;47.638;19.026;2022-09-16T17:39:55;3.67;;;1.42;;
42760;SDS011;31672;47.638;19.026;2022-09-16T17:44:57;2.63;;;1.30;;
42760;SDS011;31672;47.638;19.026;2022-09-16T17:50:01;2.28;;;1.35;;
42760;SDS011;31672;47.638;19.026;2022-09-16T17:55:06;1.80;;;1.30;;
42760;SDS011;31672;47.638;19.026;2022-09-16T18:00:09;2.25;;;1.15;;
42760;SDS011;31672;47.638;19.026;2022-09-16T18:05:13;1.75;;;0.93;;
42760;SDS011;31672;47.638;19.026;2022-09-16T18:10:16;1.58;;;0.82;;
42760;SDS011;31672;47.638;19.026;2022-09-16T18:15:19;2.58;;;1.02;;
42760;SDS011;31672;47.638;19.026;2022-09-16T18:20:22;3.83;;;1.63;;
42760;SDS011;31672;47.638;19.026;2022-09-16T18:25:27;2.72;;;0.98;;
42760;SDS011;31672;47.638;19.026;2022-09-16T18:30:29;2.20;;;1.30;;
42760;SDS011;31672;47.638;19.026;2022-09-16T18:35:32;1.55;;;0.90;;
42760;SDS011;31672;47.638;19.026;2022-09-16T18:40:38;2.13;;;1.25;;
42760;SDS011;31672;47.638;19.026;2022-09-16T18:45:41;1.92;;;1.00;;
42760;SDS011;31672;47.638;19.026;2022-09-16T18:50:43;0.95;;;0.80;;
42760;SDS011;31672;47.638;19.026;2022-09-16T18:55:46;2.40;;;0.90;;
42760;SDS011;31672;47.638;19.026;2022-09-16T19:00:49;3.20;;;1.10;;
42760;SDS011;31672;47.638;19.026;2022-09-16T19:05:55;1.45;;;0.93;;
42760;SDS011;31672;47.638;19.026;2022-09-16T19:11:00;2.55;;;1.08;;
42760;SDS011;31672;47.638;19.026;2022-09-16T19:16:05;1.95;;;1.20;;
42760;SDS011;31672;47.638;19.026;2022-09-16T19:21:12;3.08;;;1.15;;
42760;SDS011;31672;47.638;19.026;2022-09-16T19:26:18;1.60;;;1.03;;
42760;SDS011;31672;47.638;19.026;2022-09-16T19:31:20;2.92;;;1.38;;
42760;SDS011;31672;47.638;19.026;2022-09-16T19:36:24;1.50;;;0.90;;
42760;SDS011;31672;47.638;19.026;2022-09-16T19:41:31;1.70;;;1.00;;
42760;SDS011;31672;47.638;19.026;2022-09-16T19:46:36;1.52;;;1.10;;
42760;SDS011;31672;47.638;19.026;2022-09-16T19:51:43;1.63;;;1.15;;
42760;SDS011;31672;47.638;19.026;2022-09-16T19:56:47;2.05;;;1.42;;
42760;SDS011;31672;47.638;19.026;2022-09-16T20:01:52;2.08;;;1.40;;
42760;SDS011;31672;47.638;19.026;2022-09-16T20:06:55;1.73;;;1.10;;
42760;SDS011;31672;47.638;19.026;2022-09-16T20:11:57;2.28;;;1.35;;
42760;SDS011;31672;47.638;19.026;2022-09-16T20:17:00;3.08;;;1.00;;
42760;SDS011;31672;47.638;19.026;2022-09-16T20:22:04;1.98;;;1.08;;
42760;SDS011;31672;47.638;19.026;2022-09-16T20:27:07;2.55;;;1.30;;
42760;SDS011;31672;47.638;19.026;2022-09-16T20:32:10;2.35;;;1.42;;
42760;SDS011;31672;47.638;19.026;2022-09-16T20:37:13;1.95;;;1.35;;
42760;SDS011;31672;47.638;19.026;2022-09-16T20:42:16;3.72;;;1.60;;
42760;SDS011;31672;47.638;19.026;2022-09-16T20:47:19;4.07;;;1.77;;
42760;SDS011;31672;47.638;19.026;2022-09-16T20:52:22;3.25;;;1.52;;
42760;SDS011;31672;47.638;19.026;2022-09-16T20:57:25;2.42;;;1.67;;
42760;SDS011;31672;47.638;19.026;2022-09-16T21:02:30;1.75;;;1.20;;
42760;SDS011;31672;47.638;19.026;2022-09-16T21:07:33;3.15;;;1.42;;
42760;SDS011;31672;47.638;19.026;2022-09-16T21:12:36;1.88;;;1.17;;
42760;SDS011;31672;47.638;19.026;2022-09-16T21:17:39;3.20;;;1.33;;
42760;SDS011;31672;47.638;19.026;2022-09-16T21:22:41;2.10;;;1.40;;
42760;SDS011;31672;47.638;19.026;2022-09-16T21:27:46;2.53;;;1.70;;
42760;SDS011;31672;47.638;19.026;2022-09-16T21:32:49;2.40;;;1.30;;
42760;SDS011;31672;47.638;19.026;2022-09-16T21:37:52;4.32;;;2.00;;
42760;SDS011;31672;47.638;19.026;2022-09-16T21:42:55;3.88;;;1.95;;
42760;SDS011;31672;47.638;19.026;2022-09-16T21:47:58;3.17;;;1.92;;
42760;SDS011;31672;47.638;19.026;2022-09-16T21:53:00;2.92;;;1.95;;
42760;SDS011;31672;47.638;19.026;2022-09-16T21:58:05;3.45;;;2.20;;
42760;SDS011;31672;47.638;19.026;2022-09-16T22:03:09;3.10;;;2.10;;
42760;SDS011;31672;47.638;19.026;2022-09-16T22:08:12;2.38;;;1.70;;
42760;SDS011;31672;47.638;19.026;2022-09-16T22:13:15;2.92;;;1.95;;
42760;SDS011;31672;47.638;19.026;2022-09-16T22:18:17;3.05;;;2.20;;
42760;SDS011;31672;47.638;19.026;2022-09-16T22:23:21;2.90;;;1.88;;
42760;SDS011;31672;47.638;19.026;2022-09-16T22:28:23;2.80;;;1.80;;
42760;SDS011;31672;47.638;19.026;2022-09-16T22:33:26;2.78;;;1.73;;
42760;SDS011;31672;47.638;19.026;2022-09-16T22:38:29;2.55;;;1.80;;
42760;SDS011;31672;47.638;19.026;2022-09-16T22:43:33;3.13;;;2.05;;
42760;SDS011;31672;47.638;19.026;2022-09-16T22:48:41;2.28;;;1.60;;
42760;SDS011;31672;47.638;19.026;2022-09-16T22:53:45;2.25;;;1.67;;
42760;SDS011;31672;47.638;19.026;2022-09-16T22:58:53;2.80;;;1.58;;
42760;SDS011;31672;47.638;19.026;2022-09-16T23:03:58;3.55;;;1.42;;
42760;SDS011;31672;47.638;19.026;2022-09-16T23:09:03;2.35;;;1.60;;
42760;SDS011;31672;47.638;19.026;2022-09-16T23:14:09;3.50;;;1.80;;
42760;SDS011;31672;47.638;19.026;2022-09-16T23:19:16;3.45;;;1.85;;
42760;SDS011;31672;47.638;19.026;2022-09-16T23:24:20;2.93;;;1.87;;
42760;SDS011;31672;47.638;19.026;2022-09-16T23:29:23;3.00;;;1.38;;
42760;SDS011;31672;47.638;19.026;2022-09-16T23:34:26;2.22;;;1.60;;
42760;SDS011;31672;47.638;19.026;2022-09-16T23:39:29;4.28;;;1.88;;
42760;SDS011;31672;47.638;19.026;2022-09-16T23:44:32;2.13;;;1.50;;
42760;SDS011;31672;47.638;19.026;2022-09-16T23:49:35;2.28;;;1.55;;
42760;SDS011;31672;47.638;19.026;2022-09-16T23:54:38;2.40;;;1.43;;
42760;SDS011;31672;47.638;19.026;2022-09-16T23:59:41;2.63;;;1.60;;
